sensor_id;sensor_type;location;lat;lon;timestamp;temperature;humidity
5017;DHT22;2527;50.892;16.706;2023-05-07T00:01:59;12.70;99.90
5017;DHT22;2527;50.892;16.706;2023-05-07T00:04:25;12.70;99.90
5017;DHT22;2527;50.892;16.706;2023-05-07T00:06:50;12.70;99.90
5017;DHT22;2527;50.892;16.706;2023-05-07T00:09:17;12.70;99.90
5017;DHT22;2527;50.892;16.706;2023-05-07T00:11:42;12.60;99.90
5017;DHT22;2527;50.892;16.706;2023-05-07T00:14:08;12.60;99.90
5017;DHT22;2527;50.892;16.706;2023-05-07T00:16:33;12.60;99.90
5017;DHT22;2527;50.892;16.706;2023-05-07T00:19:00;12.60;99.90
5017;DHT22;2527;50.892;16.706;2023-05-07T00:21:25;12.60;99.90
5017;DHT22;2527;50.892;16.706;2023-05-07T00:23:52;12.60;99.90
5017;DHT22;2527;50.892;16.706;2023-05-07T00:26:18;12.60;99.90
5017;DHT22;2527;50.892;16.706;2023-05-07T00:28:44;12.60;99.90
5017;DHT22;2527;50.892;16.706;2023-05-07T00:31:11;12.60;99.90
5017;DHT22;2527;50.892;16.706;2023-05-07T00:33:37;12.60;99.90
5017;DHT22;2527;50.892;16.706;2023-05-07T00:36:03;12.60;99.90
5017;DHT22;2527;50.892;16.706;2023-05-07T00:38:29;12.60;99.90
5017;DHT22;2527;50.892;16.706;2023-05-07T00:40:54;12.50;99.90
5017;DHT22;2527;50.892;16.706;2023-05-07T00:43:20;12.50;99.90
5017;DHT22;2527;50.892;16.706;2023-05-07T00:45:46;12.60;99.90
5017;DHT22;2527;50.892;16.706;2023-05-07T00:48:11;12.50;99.90
5017;DHT22;2527;50.892;16.706;2023-05-07T00:50:38;12.50;99.90
5017;DHT22;2527;50.892;16.706;2023-05-07T00:53:04;12.50;99.90
5017;DHT22;2527;50.892;16.706;2023-05-07T00:55:29;12.50;99.90
5017;DHT22;2527;50.892;16.706;2023-05-07T00:57:55;12.50;99.90
5017;DHT22;2527;50.892;16.706;2023-05-07T01:00:21;12.50;99.90
5017;DHT22;2527;50.892;16.706;2023-05-07T01:02:47;12.50;99.90
5017;DHT22;2527;50.892;16.706;2023-05-07T01:05:14;12.50;99.90
5017;DHT22;2527;50.892;16.706;2023-05-07T01:07:41;12.50;99.90
5017;DHT22;2527;50.892;16.706;2023-05-07T01:10:07;12.50;99.90
5017;DHT22;2527;50.892;16.706;2023-05-07T01:12:34;12.50;99.90
5017;DHT22;2527;50.892;16.706;2023-05-07T01:15:00;12.50;99.90
5017;DHT22;2527;50.892;16.706;2023-05-07T01:17:26;12.50;99.90
5017;DHT22;2527;50.892;16.706;2023-05-07T01:19:53;12.50;99.90
5017;DHT22;2527;50.892;16.706;2023-05-07T01:22:51;12.50;99.90
5017;DHT22;2527;50.892;16.706;2023-05-07T01:25:10;12.50;99.90
5017;DHT22;2527;50.892;16.706;2023-05-07T01:27:37;12.50;99.90
5017;DHT22;2527;50.892;16.706;2023-05-07T01:30:03;12.50;99.90
5017;DHT22;2527;50.892;16.706;2023-05-07T01:32:37;12.50;99.90
5017;DHT22;2527;50.892;16.706;2023-05-07T01:35:03;12.50;99.90
5017;DHT22;2527;50.892;16.706;2023-05-07T01:37:31;12.50;99.90
5017;DHT22;2527;50.892;16.706;2023-05-07T01:39:56;12.50;99.90
5017;DHT22;2527;50.892;16.706;2023-05-07T01:42:22;12.50;99.90
5017;DHT22;2527;50.892;16.706;2023-05-07T01:44:48;12.50;99.90
5017;DHT22;2527;50.892;16.706;2023-05-07T01:47:14;12.50;99.90
5017;DHT22;2527;50.892;16.706;2023-05-07T01:49:40;12.50;99.90
5017;DHT22;2527;50.892;16.706;2023-05-07T01:52:06;12.50;99.90
5017;DHT22;2527;50.892;16.706;2023-05-07T01:54:32;12.50;99.90
5017;DHT22;2527;50.892;16.706;2023-05-07T01:56:57;12.50;99.90
5017;DHT22;2527;50.892;16.706;2023-05-07T01:59:24;12.50;99.90
5017;DHT22;2527;50.892;16.706;2023-05-07T02:01:50;12.50;99.90
5017;DHT22;2527;50.892;16.706;2023-05-07T02:04:17;12.40;99.90
5017;DHT22;2527;50.892;16.706;2023-05-07T02:06:42;12.40;99.90
5017;DHT22;2527;50.892;16.706;2023-05-07T02:09:08;12.40;99.90
5017;DHT22;2527;50.892;16.706;2023-05-07T02:11:37;12.40;99.90
5017;DHT22;2527;50.892;16.706;2023-05-07T02:14:02;12.40;99.90
5017;DHT22;2527;50.892;16.706;2023-05-07T02:16:28;12.40;99.90
5017;DHT22;2527;50.892;16.706;2023-05-07T02:18:53;12.40;99.90
5017;DHT22;2527;50.892;16.706;2023-05-07T02:21:20;12.40;99.90
5017;DHT22;2527;50.892;16.706;2023-05-07T02:23:45;12.40;99.90
5017;DHT22;2527;50.892;16.706;2023-05-07T02:26:12;12.40;99.90
5017;DHT22;2527;50.892;16.706;2023-05-07T02:28:37;12.40;99.90
5017;DHT22;2527;50.892;16.706;2023-05-07T02:31:04;12.40;99.90
5017;DHT22;2527;50.892;16.706;2023-05-07T02:33:29;12.40;99.90
5017;DHT22;2527;50.892;16.706;2023-05-07T02:35:57;12.40;99.90
5017;DHT22;2527;50.892;16.706;2023-05-07T02:38:23;12.40;99.90
5017;DHT22;2527;50.892;16.706;2023-05-07T02:40:48;12.40;99.90
5017;DHT22;2527;50.892;16.706;2023-05-07T02:43:14;12.40;99.90
5017;DHT22;2527;50.892;16.706;2023-05-07T02:45:40;12.40;99.90
5017;DHT22;2527;50.892;16.706;2023-05-07T02:48:05;12.40;99.90
5017;DHT22;2527;50.892;16.706;2023-05-07T02:50:31;12.40;99.90
5017;DHT22;2527;50.892;16.706;2023-05-07T02:52:57;12.40;99.90
5017;DHT22;2527;50.892;16.706;2023-05-07T02:55:24;12.40;99.90
5017;DHT22;2527;50.892;16.706;2023-05-07T02:57:50;12.40;99.90
5017;DHT22;2527;50.892;16.706;2023-05-07T03:00:16;12.40;99.90
5017;DHT22;2527;50.892;16.706;2023-05-07T03:02:43;12.40;99.90
5017;DHT22;2527;50.892;16.706;2023-05-07T03:05:10;12.40;99.90
5017;DHT22;2527;50.892;16.706;2023-05-07T03:07:36;12.40;99.90
5017;DHT22;2527;50.892;16.706;2023-05-07T03:10:02;12.40;99.90
5017;DHT22;2527;50.892;16.706;2023-05-07T03:12:28;12.30;99.90
5017;DHT22;2527;50.892;16.706;2023-05-07T03:14:54;12.30;99.90
5017;DHT22;2527;50.892;16.706;2023-05-07T03:17:20;12.30;99.90
5017;DHT22;2527;50.892;16.706;2023-05-07T03:19:45;12.30;99.90
5017;DHT22;2527;50.892;16.706;2023-05-07T03:22:11;12.30;99.90
5017;DHT22;2527;50.892;16.706;2023-05-07T03:24:36;12.30;99.90
5017;DHT22;2527;50.892;16.706;2023-05-07T03:27:02;12.30;99.90
5017;DHT22;2527;50.892;16.706;2023-05-07T03:29:28;12.30;99.90
5017;DHT22;2527;50.892;16.706;2023-05-07T03:31:54;12.30;99.90
5017;DHT22;2527;50.892;16.706;2023-05-07T03:34:20;12.30;99.90
5017;DHT22;2527;50.892;16.706;2023-05-07T03:36:50;12.30;99.90
5017;DHT22;2527;50.892;16.706;2023-05-07T03:39:16;12.30;99.90
5017;DHT22;2527;50.892;16.706;2023-05-07T03:41:41;12.20;99.90
5017;DHT22;2527;50.892;16.706;2023-05-07T03:44:07;12.20;99.90
5017;DHT22;2527;50.892;16.706;2023-05-07T03:46:33;12.20;99.90
5017;DHT22;2527;50.892;16.706;2023-05-07T03:48:59;12.20;99.90
5017;DHT22;2527;50.892;16.706;2023-05-07T03:51:24;12.20;99.90
5017;DHT22;2527;50.892;16.706;2023-05-07T03:53:51;12.20;99.90
5017;DHT22;2527;50.892;16.706;2023-05-07T03:56:19;12.20;99.90
5017;DHT22;2527;50.892;16.706;2023-05-07T03:58:47;12.20;99.90
5017;DHT22;2527;50.892;16.706;2023-05-07T04:01:12;12.20;99.90
5017;DHT22;2527;50.892;16.706;2023-05-07T04:03:38;12.20;99.90
5017;DHT22;2527;50.892;16.706;2023-05-07T04:06:04;12.20;99.90
5017;DHT22;2527;50.892;16.706;2023-05-07T04:08:30;12.20;99.90
5017;DHT22;2527;50.892;16.706;2023-05-07T04:10:56;12.20;99.90
5017;DHT22;2527;50.892;16.706;2023-05-07T04:13:22;12.20;99.90
5017;DHT22;2527;50.892;16.706;2023-05-07T04:15:47;12.20;99.90
5017;DHT22;2527;50.892;16.706;2023-05-07T04:18:15;12.20;99.90
5017;DHT22;2527;50.892;16.706;2023-05-07T04:20:41;12.20;99.90
5017;DHT22;2527;50.892;16.706;2023-05-07T04:23:07;12.20;99.90
5017;DHT22;2527;50.892;16.706;2023-05-07T04:25:33;12.20;99.90
5017;DHT22;2527;50.892;16.706;2023-05-07T04:27:58;12.20;99.90
5017;DHT22;2527;50.892;16.706;2023-05-07T04:30:24;12.20;99.90
5017;DHT22;2527;50.892;16.706;2023-05-07T04:32:50;12.20;99.90
5017;DHT22;2527;50.892;16.706;2023-05-07T04:35:16;12.20;99.90
5017;DHT22;2527;50.892;16.706;2023-05-07T04:37:41;12.20;99.90
5017;DHT22;2527;50.892;16.706;2023-05-07T04:40:07;12.20;99.90
5017;DHT22;2527;50.892;16.706;2023-05-07T04:42:33;12.20;99.90
5017;DHT22;2527;50.892;16.706;2023-05-07T04:44:59;12.20;99.90
5017;DHT22;2527;50.892;16.706;2023-05-07T04:47:26;12.20;99.90
5017;DHT22;2527;50.892;16.706;2023-05-07T04:49:52;12.20;99.90
5017;DHT22;2527;50.892;16.706;2023-05-07T04:52:17;12.20;99.90
5017;DHT22;2527;50.892;16.706;2023-05-07T04:54:43;12.20;99.90
5017;DHT22;2527;50.892;16.706;2023-05-07T04:57:12;12.20;99.90
5017;DHT22;2527;50.892;16.706;2023-05-07T04:59:38;12.20;99.90
5017;DHT22;2527;50.892;16.706;2023-05-07T05:02:04;12.20;99.90
5017;DHT22;2527;50.892;16.706;2023-05-07T05:04:30;12.20;99.90
5017;DHT22;2527;50.892;16.706;2023-05-07T05:06:57;12.20;99.90
5017;DHT22;2527;50.892;16.706;2023-05-07T05:09:26;12.20;99.90
5017;DHT22;2527;50.892;16.706;2023-05-07T05:11:52;12.20;99.90
5017;DHT22;2527;50.892;16.706;2023-05-07T05:14:17;12.20;99.90
5017;DHT22;2527;50.892;16.706;2023-05-07T05:16:43;12.20;99.90
5017;DHT22;2527;50.892;16.706;2023-05-07T05:19:09;12.20;99.90
5017;DHT22;2527;50.892;16.706;2023-05-07T05:21:34;12.20;99.90
5017;DHT22;2527;50.892;16.706;2023-05-07T05:24:00;12.20;99.90
5017;DHT22;2527;50.892;16.706;2023-05-07T05:26:27;12.20;99.90
5017;DHT22;2527;50.892;16.706;2023-05-07T05:28:53;12.20;99.90
5017;DHT22;2527;50.892;16.706;2023-05-07T05:31:19;12.20;99.90
5017;DHT22;2527;50.892;16.706;2023-05-07T05:33:45;12.20;99.90
5017;DHT22;2527;50.892;16.706;2023-05-07T05:36:10;12.10;99.90
5017;DHT22;2527;50.892;16.706;2023-05-07T05:38:37;12.10;99.90
5017;DHT22;2527;50.892;16.706;2023-05-07T05:41:05;12.10;99.90
5017;DHT22;2527;50.892;16.706;2023-05-07T05:43:31;12.10;99.90
5017;DHT22;2527;50.892;16.706;2023-05-07T05:45:57;12.10;99.90
5017;DHT22;2527;50.892;16.706;2023-05-07T05:48:23;12.10;99.90
5017;DHT22;2527;50.892;16.706;2023-05-07T05:50:49;12.00;99.90
5017;DHT22;2527;50.892;16.706;2023-05-07T05:53:14;12.10;99.90
5017;DHT22;2527;50.892;16.706;2023-05-07T05:55:41;12.10;99.90
5017;DHT22;2527;50.892;16.706;2023-05-07T05:58:06;12.10;99.90
5017;DHT22;2527;50.892;16.706;2023-05-07T06:00:32;12.00;99.90
5017;DHT22;2527;50.892;16.706;2023-05-07T06:02:58;12.10;99.90
5017;DHT22;2527;50.892;16.706;2023-05-07T06:05:23;12.10;99.90
5017;DHT22;2527;50.892;16.706;2023-05-07T06:07:50;12.10;99.90
5017;DHT22;2527;50.892;16.706;2023-05-07T06:10:15;12.10;99.90
5017;DHT22;2527;50.892;16.706;2023-05-07T06:12:41;12.10;99.90
5017;DHT22;2527;50.892;16.706;2023-05-07T06:15:07;12.10;99.90
5017;DHT22;2527;50.892;16.706;2023-05-07T06:17:33;12.10;99.90
5017;DHT22;2527;50.892;16.706;2023-05-07T06:19:59;12.10;99.90
5017;DHT22;2527;50.892;16.706;2023-05-07T06:22:26;12.10;99.90
5017;DHT22;2527;50.892;16.706;2023-05-07T06:24:51;12.10;99.90
5017;DHT22;2527;50.892;16.706;2023-05-07T06:27:17;12.10;99.90
5017;DHT22;2527;50.892;16.706;2023-05-07T06:29:43;12.20;99.90
5017;DHT22;2527;50.892;16.706;2023-05-07T06:32:08;12.20;99.90
5017;DHT22;2527;50.892;16.706;2023-05-07T06:34:34;12.20;99.90
5017;DHT22;2527;50.892;16.706;2023-05-07T06:37:00;12.20;99.90
5017;DHT22;2527;50.892;16.706;2023-05-07T06:39:25;12.30;99.90
5017;DHT22;2527;50.892;16.706;2023-05-07T06:41:51;12.30;99.90
5017;DHT22;2527;50.892;16.706;2023-05-07T06:44:17;12.30;99.90
5017;DHT22;2527;50.892;16.706;2023-05-07T06:46:42;12.30;99.90
5017;DHT22;2527;50.892;16.706;2023-05-07T06:49:08;12.30;99.90
5017;DHT22;2527;50.892;16.706;2023-05-07T06:51:34;12.30;99.90
5017;DHT22;2527;50.892;16.706;2023-05-07T06:54:01;12.30;99.90
5017;DHT22;2527;50.892;16.706;2023-05-07T06:56:27;12.30;99.90
5017;DHT22;2527;50.892;16.706;2023-05-07T06:58:52;12.30;99.90
5017;DHT22;2527;50.892;16.706;2023-05-07T07:01:18;12.30;99.90
5017;DHT22;2527;50.892;16.706;2023-05-07T07:03:45;12.30;99.90
5017;DHT22;2527;50.892;16.706;2023-05-07T07:06:10;12.30;99.90
5017;DHT22;2527;50.892;16.706;2023-05-07T07:08:36;12.30;99.90
5017;DHT22;2527;50.892;16.706;2023-05-07T07:11:04;12.30;99.90
5017;DHT22;2527;50.892;16.706;2023-05-07T07:13:30;12.40;99.90
5017;DHT22;2527;50.892;16.706;2023-05-07T07:15:56;12.40;99.90
5017;DHT22;2527;50.892;16.706;2023-05-07T07:18:22;12.50;99.90
5017;DHT22;2527;50.892;16.706;2023-05-07T07:20:47;12.50;99.90
5017;DHT22;2527;50.892;16.706;2023-05-07T07:23:13;12.50;99.90
5017;DHT22;2527;50.892;16.706;2023-05-07T07:25:39;12.60;99.90
5017;DHT22;2527;50.892;16.706;2023-05-07T07:28:05;12.60;99.90
5017;DHT22;2527;50.892;16.706;2023-05-07T07:30:31;12.50;99.90
5017;DHT22;2527;50.892;16.706;2023-05-07T07:32:57;12.50;99.90
5017;DHT22;2527;50.892;16.706;2023-05-07T07:35:30;12.50;99.90
5017;DHT22;2527;50.892;16.706;2023-05-07T07:37:56;12.50;99.90
5017;DHT22;2527;50.892;16.706;2023-05-07T07:40:22;12.50;99.90
5017;DHT22;2527;50.892;16.706;2023-05-07T07:42:48;12.60;99.90
5017;DHT22;2527;50.892;16.706;2023-05-07T07:45:13;12.60;99.90
5017;DHT22;2527;50.892;16.706;2023-05-07T07:47:39;12.50;99.90
5017;DHT22;2527;50.892;16.706;2023-05-07T07:50:06;12.50;99.90
5017;DHT22;2527;50.892;16.706;2023-05-07T07:52:32;12.50;99.90
5017;DHT22;2527;50.892;16.706;2023-05-07T07:54:57;12.50;99.90
5017;DHT22;2527;50.892;16.706;2023-05-07T07:57:23;12.50;99.90
5017;DHT22;2527;50.892;16.706;2023-05-07T07:59:49;12.50;99.90
5017;DHT22;2527;50.892;16.706;2023-05-07T08:02:15;12.50;99.90
5017;DHT22;2527;50.892;16.706;2023-05-07T08:04:42;12.60;99.90
5017;DHT22;2527;50.892;16.706;2023-05-07T08:07:09;12.50;99.90
5017;DHT22;2527;50.892;16.706;2023-05-07T08:09:34;12.60;99.90
5017;DHT22;2527;50.892;16.706;2023-05-07T08:12:00;12.70;99.90
5017;DHT22;2527;50.892;16.706;2023-05-07T08:14:27;12.70;99.90
5017;DHT22;2527;50.892;16.706;2023-05-07T08:16:54;12.70;99.90
5017;DHT22;2527;50.892;16.706;2023-05-07T08:19:20;12.70;99.90
5017;DHT22;2527;50.892;16.706;2023-05-07T08:21:47;12.70;99.90
5017;DHT22;2527;50.892;16.706;2023-05-07T08:24:16;12.60;99.90
5017;DHT22;2527;50.892;16.706;2023-05-07T08:26:42;12.60;99.90
5017;DHT22;2527;50.892;16.706;2023-05-07T08:29:08;12.60;99.90
5017;DHT22;2527;50.892;16.706;2023-05-07T08:31:34;12.60;99.90
5017;DHT22;2527;50.892;16.706;2023-05-07T08:34:00;12.60;99.90
5017;DHT22;2527;50.892;16.706;2023-05-07T08:36:26;12.60;99.90
5017;DHT22;2527;50.892;16.706;2023-05-07T08:38:52;12.60;99.90
5017;DHT22;2527;50.892;16.706;2023-05-07T08:41:18;12.60;99.90
5017;DHT22;2527;50.892;16.706;2023-05-07T08:43:48;12.50;99.90
5017;DHT22;2527;50.892;16.706;2023-05-07T08:46:21;12.50;99.90
5017;DHT22;2527;50.892;16.706;2023-05-07T08:48:48;12.50;99.90
5017;DHT22;2527;50.892;16.706;2023-05-07T08:51:19;12.50;99.90
5017;DHT22;2527;50.892;16.706;2023-05-07T08:53:46;12.50;99.90
5017;DHT22;2527;50.892;16.706;2023-05-07T08:56:14;12.50;99.90
5017;DHT22;2527;50.892;16.706;2023-05-07T08:58:46;12.60;99.90
5017;DHT22;2527;50.892;16.706;2023-05-07T09:01:15;12.60;99.90
5017;DHT22;2527;50.892;16.706;2023-05-07T09:03:41;12.60;99.90
5017;DHT22;2527;50.892;16.706;2023-05-07T09:06:07;12.50;99.90
5017;DHT22;2527;50.892;16.706;2023-05-07T09:08:33;12.60;99.90
5017;DHT22;2527;50.892;16.706;2023-05-07T09:10:59;12.60;99.90
5017;DHT22;2527;50.892;16.706;2023-05-07T09:13:25;12.60;99.90
5017;DHT22;2527;50.892;16.706;2023-05-07T09:15:52;12.60;99.90
5017;DHT22;2527;50.892;16.706;2023-05-07T09:18:17;12.60;99.90
5017;DHT22;2527;50.892;16.706;2023-05-07T09:20:46;12.50;99.90
5017;DHT22;2527;50.892;16.706;2023-05-07T09:23:12;12.60;99.90
5017;DHT22;2527;50.892;16.706;2023-05-07T09:25:39;12.50;99.90
5017;DHT22;2527;50.892;16.706;2023-05-07T09:28:05;12.50;99.90
5017;DHT22;2527;50.892;16.706;2023-05-07T09:30:35;12.50;99.90
5017;DHT22;2527;50.892;16.706;2023-05-07T09:33:01;12.50;99.90
5017;DHT22;2527;50.892;16.706;2023-05-07T09:35:27;12.50;99.90
5017;DHT22;2527;50.892;16.706;2023-05-07T09:37:54;12.50;99.90
5017;DHT22;2527;50.892;16.706;2023-05-07T09:40:21;12.50;99.90
5017;DHT22;2527;50.892;16.706;2023-05-07T09:42:48;12.50;99.90
5017;DHT22;2527;50.892;16.706;2023-05-07T09:45:16;12.50;99.90
5017;DHT22;2527;50.892;16.706;2023-05-07T09:47:47;12.50;99.90
5017;DHT22;2527;50.892;16.706;2023-05-07T09:50:15;12.40;99.90
5017;DHT22;2527;50.892;16.706;2023-05-07T09:52:41;12.40;99.90
5017;DHT22;2527;50.892;16.706;2023-05-07T09:55:09;12.40;99.90
5017;DHT22;2527;50.892;16.706;2023-05-07T09:57:36;12.40;99.90
5017;DHT22;2527;50.892;16.706;2023-05-07T10:00:02;12.40;99.90
5017;DHT22;2527;50.892;16.706;2023-05-07T10:02:31;12.40;99.90
5017;DHT22;2527;50.892;16.706;2023-05-07T10:04:59;12.50;99.90
5017;DHT22;2527;50.892;16.706;2023-05-07T10:07:26;12.50;99.90
5017;DHT22;2527;50.892;16.706;2023-05-07T10:09:52;12.50;99.90
5017;DHT22;2527;50.892;16.706;2023-05-07T10:12:18;12.50;99.90
5017;DHT22;2527;50.892;16.706;2023-05-07T10:14:45;12.50;99.90
5017;DHT22;2527;50.892;16.706;2023-05-07T10:17:11;12.50;99.90
5017;DHT22;2527;50.892;16.706;2023-05-07T10:19:37;12.50;99.90
5017;DHT22;2527;50.892;16.706;2023-05-07T10:22:04;12.50;99.90
5017;DHT22;2527;50.892;16.706;2023-05-07T10:24:34;12.50;99.90
5017;DHT22;2527;50.892;16.706;2023-05-07T10:27:01;12.60;99.90
5017;DHT22;2527;50.892;16.706;2023-05-07T10:29:33;12.70;99.90
5017;DHT22;2527;50.892;16.706;2023-05-07T10:32:25;12.80;99.90
5017;DHT22;2527;50.892;16.706;2023-05-07T10:34:55;12.90;99.90
5017;DHT22;2527;50.892;16.706;2023-05-07T10:37:22;13.00;99.90
5017;DHT22;2527;50.892;16.706;2023-05-07T10:39:49;13.00;99.90
5017;DHT22;2527;50.892;16.706;2023-05-07T10:42:15;13.10;99.90
5017;DHT22;2527;50.892;16.706;2023-05-07T10:44:41;13.10;99.90
5017;DHT22;2527;50.892;16.706;2023-05-07T10:47:11;13.10;99.90
5017;DHT22;2527;50.892;16.706;2023-05-07T10:52:13;13.00;99.90
5017;DHT22;2527;50.892;16.706;2023-05-07T10:54:43;13.00;99.90
5017;DHT22;2527;50.892;16.706;2023-05-07T10:59:56;12.90;99.90
5017;DHT22;2527;50.892;16.706;2023-05-07T11:02:22;12.90;99.90
5017;DHT22;2527;50.892;16.706;2023-05-07T11:05:30;12.90;99.90
5017;DHT22;2527;50.892;16.706;2023-05-07T11:07:36;12.90;99.90
5017;DHT22;2527;50.892;16.706;2023-05-07T11:10:03;13.00;99.90
5017;DHT22;2527;50.892;16.706;2023-05-07T11:15:02;13.10;99.90
5017;DHT22;2527;50.892;16.706;2023-05-07T11:17:29;13.20;99.90
5017;DHT22;2527;50.892;16.706;2023-05-07T11:19:57;13.20;99.90
5017;DHT22;2527;50.892;16.706;2023-05-07T11:22:41;13.20;99.90
5017;DHT22;2527;50.892;16.706;2023-05-07T11:25:07;13.20;99.90
5017;DHT22;2527;50.892;16.706;2023-05-07T11:27:33;13.20;99.90
5017;DHT22;2527;50.892;16.706;2023-05-07T11:29:58;13.20;99.90
5017;DHT22;2527;50.892;16.706;2023-05-07T11:32:30;13.30;99.90
5017;DHT22;2527;50.892;16.706;2023-05-07T11:34:58;13.30;99.90
5017;DHT22;2527;50.892;16.706;2023-05-07T11:37:24;13.30;99.90
5017;DHT22;2527;50.892;16.706;2023-05-07T11:39:50;13.40;99.90
5017;DHT22;2527;50.892;16.706;2023-05-07T11:44:55;13.60;99.90
5017;DHT22;2527;50.892;16.706;2023-05-07T11:47:21;13.60;99.90
5017;DHT22;2527;50.892;16.706;2023-05-07T11:49:52;13.70;99.90
5017;DHT22;2527;50.892;16.706;2023-05-07T11:52:18;13.70;99.90
5017;DHT22;2527;50.892;16.706;2023-05-07T11:57:14;13.60;99.90
5017;DHT22;2527;50.892;16.706;2023-05-07T11:59:40;13.60;99.90
5017;DHT22;2527;50.892;16.706;2023-05-07T12:02:06;13.60;99.90
5017;DHT22;2527;50.892;16.706;2023-05-07T12:04:32;13.60;99.90
5017;DHT22;2527;50.892;16.706;2023-05-07T12:06:58;13.60;99.90
5017;DHT22;2527;50.892;16.706;2023-05-07T12:09:24;13.60;99.90
5017;DHT22;2527;50.892;16.706;2023-05-07T12:11:51;13.50;99.90
5017;DHT22;2527;50.892;16.706;2023-05-07T12:14:17;13.60;99.90
5017;DHT22;2527;50.892;16.706;2023-05-07T12:16:43;13.60;99.90
5017;DHT22;2527;50.892;16.706;2023-05-07T12:19:10;13.60;99.90
5017;DHT22;2527;50.892;16.706;2023-05-07T12:21:40;13.60;99.90
5017;DHT22;2527;50.892;16.706;2023-05-07T12:24:07;13.60;99.90
5017;DHT22;2527;50.892;16.706;2023-05-07T12:26:37;13.60;99.90
5017;DHT22;2527;50.892;16.706;2023-05-07T12:29:03;13.60;99.90
5017;DHT22;2527;50.892;16.706;2023-05-07T12:31:29;13.60;99.90
5017;DHT22;2527;50.892;16.706;2023-05-07T12:33:54;13.60;99.90
5017;DHT22;2527;50.892;16.706;2023-05-07T12:36:20;13.60;99.90
5017;DHT22;2527;50.892;16.706;2023-05-07T12:38:48;13.60;99.90
5017;DHT22;2527;50.892;16.706;2023-05-07T12:41:16;13.60;99.90
5017;DHT22;2527;50.892;16.706;2023-05-07T12:43:44;13.60;99.90
5017;DHT22;2527;50.892;16.706;2023-05-07T12:46:11;13.60;99.90
5017;DHT22;2527;50.892;16.706;2023-05-07T12:48:43;13.70;99.90
5017;DHT22;2527;50.892;16.706;2023-05-07T12:51:09;13.70;99.90
5017;DHT22;2527;50.892;16.706;2023-05-07T12:53:39;13.70;99.90
5017;DHT22;2527;50.892;16.706;2023-05-07T12:56:05;13.60;99.90
5017;DHT22;2527;50.892;16.706;2023-05-07T12:58:33;13.60;99.90
5017;DHT22;2527;50.892;16.706;2023-05-07T13:01:00;13.60;99.90
5017;DHT22;2527;50.892;16.706;2023-05-07T13:05:58;13.50;99.90
5017;DHT22;2527;50.892;16.706;2023-05-07T13:08:25;13.50;99.90
5017;DHT22;2527;50.892;16.706;2023-05-07T13:10:51;13.40;99.90
5017;DHT22;2527;50.892;16.706;2023-05-07T13:13:16;13.40;99.90
5017;DHT22;2527;50.892;16.706;2023-05-07T13:15:42;13.40;99.90
5017;DHT22;2527;50.892;16.706;2023-05-07T13:18:07;13.30;99.90
5017;DHT22;2527;50.892;16.706;2023-05-07T13:20:36;13.30;99.90
5017;DHT22;2527;50.892;16.706;2023-05-07T13:23:02;13.30;99.90
5017;DHT22;2527;50.892;16.706;2023-05-07T13:25:30;13.30;99.90
5017;DHT22;2527;50.892;16.706;2023-05-07T13:27:59;13.30;99.90
5017;DHT22;2527;50.892;16.706;2023-05-07T13:30:25;13.30;99.90
5017;DHT22;2527;50.892;16.706;2023-05-07T13:32:51;13.30;99.90
5017;DHT22;2527;50.892;16.706;2023-05-07T13:35:18;13.40;99.90
5017;DHT22;2527;50.892;16.706;2023-05-07T13:37:43;13.40;99.90
5017;DHT22;2527;50.892;16.706;2023-05-07T13:40:09;13.30;99.90
5017;DHT22;2527;50.892;16.706;2023-05-07T13:42:35;13.30;99.90
5017;DHT22;2527;50.892;16.706;2023-05-07T13:45:01;13.30;99.90
5017;DHT22;2527;50.892;16.706;2023-05-07T13:47:30;13.30;99.90
5017;DHT22;2527;50.892;16.706;2023-05-07T13:49:56;13.40;99.90
5017;DHT22;2527;50.892;16.706;2023-05-07T13:52:21;13.40;99.90
5017;DHT22;2527;50.892;16.706;2023-05-07T13:54:47;13.40;99.90
5017;DHT22;2527;50.892;16.706;2023-05-07T13:57:13;13.40;99.90
5017;DHT22;2527;50.892;16.706;2023-05-07T13:59:38;13.40;99.90
5017;DHT22;2527;50.892;16.706;2023-05-07T14:02:04;13.50;99.90
5017;DHT22;2527;50.892;16.706;2023-05-07T14:04:30;13.50;99.90
5017;DHT22;2527;50.892;16.706;2023-05-07T14:06:56;13.50;99.90
5017;DHT22;2527;50.892;16.706;2023-05-07T14:09:21;13.50;99.90
5017;DHT22;2527;50.892;16.706;2023-05-07T14:11:48;13.40;99.90
5017;DHT22;2527;50.892;16.706;2023-05-07T14:14:17;13.40;99.90
5017;DHT22;2527;50.892;16.706;2023-05-07T14:16:43;13.40;99.90
5017;DHT22;2527;50.892;16.706;2023-05-07T14:19:09;13.30;99.90
5017;DHT22;2527;50.892;16.706;2023-05-07T14:21:35;13.30;99.90
5017;DHT22;2527;50.892;16.706;2023-05-07T14:24:01;13.30;99.90
5017;DHT22;2527;50.892;16.706;2023-05-07T14:26:27;13.20;99.90
5017;DHT22;2527;50.892;16.706;2023-05-07T14:28:52;13.20;99.90
5017;DHT22;2527;50.892;16.706;2023-05-07T14:31:20;13.20;99.90
5017;DHT22;2527;50.892;16.706;2023-05-07T14:33:46;13.20;99.90
5017;DHT22;2527;50.892;16.706;2023-05-07T14:36:12;13.20;99.90
5017;DHT22;2527;50.892;16.706;2023-05-07T14:38:38;13.20;99.90
5017;DHT22;2527;50.892;16.706;2023-05-07T14:41:05;13.10;99.90
5017;DHT22;2527;50.892;16.706;2023-05-07T14:43:31;13.10;99.90
5017;DHT22;2527;50.892;16.706;2023-05-07T14:45:57;13.10;99.90
5017;DHT22;2527;50.892;16.706;2023-05-07T14:48:23;13.10;99.90
5017;DHT22;2527;50.892;16.706;2023-05-07T14:50:48;13.10;99.90
5017;DHT22;2527;50.892;16.706;2023-05-07T14:53:14;13.10;99.90
5017;DHT22;2527;50.892;16.706;2023-05-07T14:55:41;13.10;99.90
5017;DHT22;2527;50.892;16.706;2023-05-07T14:58:07;13.20;99.90
5017;DHT22;2527;50.892;16.706;2023-05-07T15:00:33;13.20;99.90
5017;DHT22;2527;50.892;16.706;2023-05-07T15:03:09;13.20;99.90
5017;DHT22;2527;50.892;16.706;2023-05-07T15:05:36;13.20;99.90
5017;DHT22;2527;50.892;16.706;2023-05-07T15:08:02;13.20;99.90
5017;DHT22;2527;50.892;16.706;2023-05-07T15:10:28;13.20;99.90
5017;DHT22;2527;50.892;16.706;2023-05-07T15:12:54;13.20;99.90
5017;DHT22;2527;50.892;16.706;2023-05-07T15:15:20;13.10;99.90
5017;DHT22;2527;50.892;16.706;2023-05-07T15:17:47;13.10;99.90
5017;DHT22;2527;50.892;16.706;2023-05-07T15:20:12;13.10;99.90
5017;DHT22;2527;50.892;16.706;2023-05-07T15:22:38;13.10;99.90
5017;DHT22;2527;50.892;16.706;2023-05-07T15:25:04;13.10;99.90
5017;DHT22;2527;50.892;16.706;2023-05-07T15:27:30;13.10;99.90
5017;DHT22;2527;50.892;16.706;2023-05-07T15:29:57;13.10;99.90
5017;DHT22;2527;50.892;16.706;2023-05-07T15:32:23;13.10;99.90
5017;DHT22;2527;50.892;16.706;2023-05-07T15:34:48;13.00;99.90
5017;DHT22;2527;50.892;16.706;2023-05-07T15:37:16;13.00;99.90
5017;DHT22;2527;50.892;16.706;2023-05-07T15:39:42;13.00;99.90
5017;DHT22;2527;50.892;16.706;2023-05-07T15:42:07;13.00;99.90
5017;DHT22;2527;50.892;16.706;2023-05-07T15:44:33;12.90;99.90
5017;DHT22;2527;50.892;16.706;2023-05-07T15:46:59;13.00;99.90
5017;DHT22;2527;50.892;16.706;2023-05-07T15:49:25;13.00;99.90
5017;DHT22;2527;50.892;16.706;2023-05-07T15:51:50;13.00;99.90
5017;DHT22;2527;50.892;16.706;2023-05-07T15:54:19;13.00;99.90
5017;DHT22;2527;50.892;16.706;2023-05-07T15:56:45;13.00;99.90